createdAt,value
2023-02-18T00:07:11.529Z,10.90
2023-02-18T00:15:07.871Z,10.80
2023-02-18T00:17:36.618Z,10.80
2023-02-18T00:35:19.294Z,10.70
2023-02-18T00:45:45.815Z,10.60
2023-02-18T00:51:03.110Z,10.50
2023-02-18T00:53:34.937Z,10.40
2023-02-18T01:03:57.586Z,10.30
2023-02-18T01:11:56.765Z,10.50
2023-02-18T01:16:54.129Z,10.60
2023-02-18T01:19:23.056Z,10.60
2023-02-18T01:24:44.838Z,10.50
2023-02-18T01:27:16.284Z,10.60
2023-02-18T01:35:14.994Z,10.50
2023-02-18T01:40:51.465Z,10.50
2023-02-18T01:43:22.993Z,10.50
2023-02-18T01:46:04.102Z,10.50
2023-02-18T01:48:39.978Z,10.80
2023-02-18T01:51:14.570Z,10.40
2023-02-18T01:53:51.679Z,10.40
2023-02-18T01:56:29.012Z,10.40
2023-02-18T02:12:50.792Z,10.40
2023-02-18T02:15:38.263Z,10.40
2023-02-18T02:22:06.906Z,10.40
2023-02-18T02:25:23.419Z,10.40
2023-02-18T02:28:41.737Z,10.50
2023-02-18T02:31:55.863Z,10.50
2023-02-18T02:34:52.293Z,10.50
2023-02-18T02:40:35.194Z,10.50
2023-02-18T02:46:07.938Z,10.40
2023-02-18T02:48:47.769Z,10.40
2023-02-18T02:51:28.635Z,10.40
2023-02-18T02:54:16.222Z,10.40
2023-02-18T02:59:21.857Z,10.50
2023-02-18T03:02:13.293Z,10.50
2023-02-18T03:05:15.270Z,10.50
2023-02-18T03:08:23.979Z,10.50
2023-02-18T03:11:04.690Z,10.50
2023-02-18T03:16:56.952Z,10.50
2023-02-18T03:22:32.185Z,10.50
2023-02-18T03:25:05.536Z,10.40
2023-02-18T03:27:49.417Z,9.40
2023-02-18T03:30:44.912Z,10.40
2023-02-18T03:33:21.479Z,10.40
2023-02-18T03:35:54.274Z,10.40
2023-02-18T03:54:51.148Z,10.60
2023-02-18T03:57:19.868Z,10.60
2023-02-18T04:05:14.614Z,10.50
2023-02-18T04:07:54.562Z,10.40
2023-02-18T04:23:43.470Z,10.50
2023-02-18T04:28:48.646Z,11.40
2023-02-18T04:37:04.450Z,10.40
2023-02-18T04:47:24.401Z,10.40
2023-02-18T04:52:21.999Z,10.40
2023-02-18T05:04:50.540Z,10.50
2023-02-18T05:10:24.659Z,10.50
2023-02-18T05:12:53.163Z,10.50
2023-02-18T05:15:21.615Z,10.40
2023-02-18T05:17:50.053Z,9.40
2023-02-18T05:20:18.800Z,10.30
2023-02-18T05:22:47.407Z,10.40
2023-02-18T05:32:44.593Z,10.80
2023-02-18T05:37:44.187Z,10.30
2023-02-18T05:40:13.717Z,10.30
2023-02-18T05:45:24.066Z,10.30
2023-02-18T05:57:49.156Z,10.30
2023-02-18T06:00:30.219Z,10.40
2023-02-18T06:05:53.348Z,10.30
2023-02-18T06:08:21.586Z,10.40
2023-02-18T06:10:50.299Z,10.40
2023-02-18T06:13:19.093Z,10.30
2023-02-18T06:15:47.575Z,10.30
2023-02-18T06:18:15.911Z,10.30
2023-02-18T06:20:45.659Z,9.00
2023-02-18T06:23:14.094Z,10.30
2023-02-18T06:25:43.172Z,10.30
2023-02-18T06:28:11.762Z,10.30
2023-02-18T06:30:40.835Z,10.30
2023-02-18T06:36:13.791Z,10.30
2023-02-18T06:38:45.338Z,10.30
2023-02-18T06:41:15.393Z,10.40
2023-02-18T06:46:14.012Z,11.50
2023-02-18T06:48:42.549Z,10.30
2023-02-18T06:51:12.496Z,10.40
2023-02-18T06:56:30.730Z,10.30
2023-02-18T06:58:59.403Z,10.40
2023-02-18T07:01:27.838Z,10.30
2023-02-18T07:03:56.755Z,10.30
2023-02-18T07:06:26.631Z,11.50
2023-02-18T07:20:24.525Z,10.40
2023-02-18T07:35:39.814Z,10.50
2023-02-18T07:38:10.649Z,11.20
2023-02-18T07:40:39.110Z,10.60
2023-02-18T07:43:08.867Z,10.60
2023-02-18T07:45:39.856Z,11.20
2023-02-18T07:50:42.141Z,10.80
2023-02-18T08:04:07.852Z,10.90
2023-02-18T08:06:39.654Z,10.90
2023-02-18T08:11:38.642Z,11.00
2023-02-18T08:14:07.957Z,11.00
2023-02-18T08:16:37.075Z,11.00
2023-02-18T08:24:04.134Z,11.00
2023-02-18T08:31:33.023Z,11.20
2023-02-18T08:34:04.823Z,11.20
2023-02-18T08:41:31.039Z,11.40
2023-02-18T08:44:00.825Z,11.40
2023-02-18T08:49:06.352Z,11.60
2023-02-18T08:51:35.284Z,11.60
2023-02-18T08:54:10.040Z,11.60
2023-02-18T09:01:59.954Z,11.90
2023-02-18T09:11:55.545Z,11.90
2023-02-18T09:16:59.820Z,12.00
2023-02-18T09:19:28.454Z,12.60
2023-02-18T09:21:59.177Z,11.90
2023-02-18T09:27:29.997Z,8.80
2023-02-18T09:30:03.168Z,11.90
2023-02-18T09:35:41.741Z,11.90
2023-02-18T09:38:11.785Z,11.80
2023-02-18T09:43:45.028Z,12.00
2023-02-18T09:46:22.944Z,12.10
2023-02-18T09:48:54.275Z,12.20
2023-02-18T09:51:34.021Z,12.30
2023-02-18T09:54:04.052Z,12.40
2023-02-18T09:56:40.462Z,12.50
2023-02-18T09:59:17.282Z,12.40
2023-02-18T10:01:52.048Z,12.40
2023-02-18T10:04:30.251Z,10.60
2023-02-18T10:07:03.789Z,12.30
2023-02-18T10:09:36.712Z,12.20
2023-02-18T10:12:17.389Z,12.10
2023-02-18T10:14:50.529Z,12.10
2023-02-18T10:17:21.636Z,11.50
2023-02-18T10:19:57.401Z,12.20
2023-02-18T10:22:28.934Z,12.20
2023-02-18T10:25:01.740Z,12.30
2023-02-18T10:27:34.715Z,12.30
2023-02-18T10:30:23.818Z,12.40
2023-02-18T10:33:00.223Z,12.50
2023-02-18T10:35:41.805Z,12.50
2023-02-18T10:38:26.242Z,12.50
2023-02-18T10:41:07.393Z,12.40
2023-02-18T10:43:53.706Z,12.50
2023-02-18T10:46:36.415Z,12.50
2023-02-18T10:49:31.983Z,12.60
2023-02-18T10:52:07.663Z,13.70
2023-02-18T10:54:53.518Z,12.70
2023-02-18T10:57:25.209Z,12.70
2023-02-18T11:00:01.834Z,12.80
2023-02-18T11:02:33.246Z,12.90
2023-02-18T11:05:17.329Z,13.00
2023-02-18T11:07:55.355Z,13.10
2023-02-18T11:10:28.594Z,13.40
2023-02-18T11:13:01.800Z,13.60
2023-02-18T11:18:40.374Z,13.70
2023-02-18T11:21:26.687Z,13.60
2023-02-18T11:23:58.657Z,13.50
2023-02-18T11:26:33.275Z,13.30
2023-02-18T11:31:44.718Z,13.20
2023-02-18T11:34:21.274Z,13.10
2023-02-18T11:39:46.965Z,13.10
2023-02-18T11:42:23.150Z,13.10
2023-02-18T11:47:43.868Z,12.90
2023-02-18T11:50:24.636Z,12.90
2023-02-18T11:52:53.978Z,12.90
2023-02-18T11:58:46.603Z,12.80
2023-02-18T12:01:34.640Z,13.00
2023-02-18T12:04:15.116Z,13.10
2023-02-18T12:07:02.573Z,13.10
2023-02-18T12:09:38.230Z,13.20
2023-02-18T12:12:17.005Z,13.90
2023-02-18T12:17:56.513Z,13.40
2023-02-18T12:21:03.558Z,13.50
2023-02-18T12:23:47.082Z,13.50
2023-02-18T12:26:28.137Z,13.50
2023-02-18T12:29:20.511Z,13.40
2023-02-18T12:32:13.879Z,13.40
2023-02-18T12:35:04.398Z,13.50
2023-02-18T12:41:40.772Z,13.40
2023-02-18T12:44:26.923Z,13.40
2023-02-18T12:47:30.733Z,13.40
2023-02-18T12:50:32.777Z,13.30
2023-02-18T12:53:30.994Z,13.30
2023-02-18T12:56:34.739Z,13.30
2023-02-18T12:59:19.425Z,13.30
2023-02-18T13:02:04.450Z,13.30
2023-02-18T13:04:52.307Z,13.30
2023-02-18T13:07:52.529Z,13.30
2023-02-18T13:10:46.720Z,13.20
2023-02-18T13:13:22.114Z,13.20
2023-02-18T13:16:00.009Z,13.20
2023-02-18T13:18:35.144Z,13.30
2023-02-18T13:21:08.020Z,13.20
2023-02-18T13:23:45.886Z,13.10
2023-02-18T13:26:19.825Z,13.20
2023-02-18T13:29:17.032Z,13.10
2023-02-18T13:32:10.691Z,13.10
2023-02-18T13:34:51.887Z,13.10
2023-02-18T13:37:33.119Z,13.00
2023-02-18T13:40:03.635Z,13.10
2023-02-18T13:42:38.690Z,13.20
2023-02-18T13:45:31.807Z,13.20
2023-02-18T13:48:01.905Z,13.20
2023-02-18T13:50:44.463Z,13.00
2023-02-18T13:53:29.296Z,13.40
2023-02-18T13:56:05.388Z,13.70
2023-02-18T13:58:42.052Z,13.80
2023-02-18T14:01:26.061Z,13.80
2023-02-18T14:04:01.827Z,13.70
2023-02-18T14:06:39.144Z,14.50
2023-02-18T14:09:43.078Z,14.80
2023-02-18T14:12:27.685Z,15.10
2023-02-18T14:14:56.292Z,14.80
2023-02-18T14:17:43.409Z,14.60
2023-02-18T14:20:48.163Z,14.50
2023-02-18T14:23:44.722Z,14.20
2023-02-18T14:26:26.403Z,13.90
2023-02-18T14:29:00.102Z,13.80
2023-02-18T14:31:50.367Z,13.70
2023-02-18T14:35:02.414Z,13.60
2023-02-18T14:38:08.611Z,13.50
2023-02-18T14:40:57.742Z,13.30
2023-02-18T14:43:51.234Z,13.30
2023-02-18T14:46:38.305Z,13.20
2023-02-18T14:49:38.203Z,13.20
2023-02-18T14:52:16.439Z,13.20
2023-02-18T14:54:47.453Z,13.10
2023-02-18T14:57:20.333Z,13.10
2023-02-18T14:59:49.102Z,13.00
2023-02-18T15:02:23.738Z,13.00
2023-02-18T15:04:53.777Z,13.00
2023-02-18T15:07:24.031Z,13.00
2023-02-18T15:09:56.337Z,13.00
2023-02-18T15:12:26.635Z,12.90
2023-02-18T15:15:06.954Z,12.90
2023-02-18T15:17:35.587Z,12.50
2023-02-18T15:20:09.405Z,12.90
2023-02-18T15:25:07.755Z,12.80
2023-02-18T15:27:44.404Z,10.90
2023-02-18T15:30:23.146Z,12.70
2023-02-18T15:32:57.300Z,12.70
2023-02-18T15:35:30.950Z,12.70
2023-02-18T15:38:04.236Z,12.80
2023-02-18T15:46:00.257Z,12.80
2023-02-18T15:48:40.783Z,12.70
2023-02-18T15:51:22.785Z,12.80
2023-02-18T15:53:55.912Z,12.70
2023-02-18T15:56:33.945Z,12.70
2023-02-18T15:59:19.583Z,12.60
2023-02-18T16:01:52.622Z,12.70
2023-02-18T16:04:35.117Z,13.80
2023-02-18T16:07:26.843Z,12.60
2023-02-18T16:10:26.577Z,12.60
2023-02-18T16:13:00.536Z,12.60
2023-02-18T16:15:38.371Z,12.60
2023-02-18T16:20:42.100Z,12.40
2023-02-18T16:23:16.004Z,12.40
2023-02-18T16:25:51.038Z,12.50
2023-02-18T16:28:28.039Z,12.40
2023-02-18T16:30:56.962Z,12.40
2023-02-18T16:33:29.253Z,12.70
2023-02-18T16:38:31.401Z,12.40
2023-02-18T16:41:00.490Z,12.40
2023-02-18T16:43:32.729Z,12.20
2023-02-18T16:46:11.477Z,12.30
2023-02-18T16:48:47.295Z,12.20
2023-02-18T16:51:22.322Z,12.20
2023-02-18T16:54:00.264Z,12.20
2023-02-18T16:56:39.783Z,11.10
2023-02-18T16:59:08.875Z,12.10
2023-02-18T17:01:45.093Z,12.00
2023-02-18T17:04:18.365Z,13.60
2023-02-18T17:06:48.712Z,12.00
2023-02-18T17:09:22.236Z,11.90
2023-02-18T17:11:53.303Z,12.00
2023-02-18T17:14:23.294Z,12.00
2023-02-18T17:16:55.271Z,12.00
2023-02-18T17:19:23.867Z,11.90
2023-02-18T17:21:52.180Z,11.90
2023-02-18T17:24:27.027Z,11.80
2023-02-18T17:26:55.439Z,11.80
2023-02-18T17:29:23.843Z,11.90
2023-02-18T17:31:57.667Z,11.80
2023-02-18T17:34:29.101Z,11.80
2023-02-18T17:39:29.743Z,11.60
2023-02-18T17:41:58.266Z,11.80
2023-02-18T17:44:29.121Z,11.70
2023-02-18T17:46:57.466Z,11.80
2023-02-18T17:49:25.804Z,11.70
2023-02-18T17:51:58.211Z,11.80
2023-02-18T17:54:28.425Z,12.50
2023-02-18T17:56:56.907Z,11.80
2023-02-18T17:59:25.286Z,12.20
2023-02-18T18:01:53.590Z,10.50
2023-02-18T18:06:51.169Z,11.70
2023-02-18T18:09:23.092Z,9.50
2023-02-18T18:11:52.899Z,11.70
2023-02-18T18:14:21.228Z,11.70
2023-02-18T18:16:49.699Z,11.60
2023-02-18T18:19:18.059Z,11.60
2023-02-18T18:21:47.053Z,11.60
2023-02-18T18:24:15.373Z,11.70
2023-02-18T18:26:43.780Z,11.60
2023-02-18T18:29:13.462Z,11.60
2023-02-18T18:31:42.750Z,11.60
2023-02-18T18:34:11.907Z,11.80
2023-02-18T18:36:40.549Z,11.70
2023-02-18T18:39:09.595Z,11.70
2023-02-18T18:41:38.361Z,11.60
2023-02-18T18:46:37.231Z,11.60
2023-02-18T18:49:05.633Z,11.60
2023-02-18T18:51:34.782Z,11.60
2023-02-18T18:54:03.319Z,11.20
2023-02-18T18:59:00.801Z,11.10
2023-02-18T19:01:29.757Z,11.00
2023-02-18T19:03:59.497Z,11.00
2023-02-18T19:06:27.915Z,10.90
2023-02-18T19:08:56.336Z,10.20
2023-02-18T19:11:24.811Z,10.90
2023-02-18T19:13:53.077Z,10.80
2023-02-18T19:16:28.923Z,10.80
2023-02-18T19:18:57.199Z,10.80
2023-02-18T19:21:26.948Z,10.80
2023-02-18T19:23:55.975Z,10.70
2023-02-18T19:26:24.922Z,9.40
2023-02-18T19:28:53.297Z,10.60
2023-02-18T19:31:24.480Z,10.50
2023-02-18T19:33:53.092Z,10.50
2023-02-18T19:36:22.200Z,10.50
2023-02-18T19:38:52.074Z,10.40
2023-02-18T19:41:23.649Z,10.40
2023-02-18T19:43:52.649Z,10.30
2023-02-18T19:46:21.416Z,10.20
2023-02-18T19:48:52.659Z,10.10
2023-02-18T19:51:21.738Z,10.00
2023-02-18T19:53:51.710Z,10.90
2023-02-18T19:56:20.030Z,9.80
2023-02-18T19:58:48.418Z,9.80
2023-02-18T20:01:18.768Z,9.70
2023-02-18T20:03:50.809Z,9.70
2023-02-18T20:06:22.417Z,9.70
2023-02-18T20:08:55.064Z,9.60
2023-02-18T20:11:23.770Z,9.60
2023-02-18T20:13:52.024Z,10.70
2023-02-18T20:16:20.476Z,9.60
2023-02-18T20:21:17.426Z,9.60
2023-02-18T20:23:45.732Z,9.60
2023-02-18T20:26:15.879Z,9.50
2023-02-18T20:33:48.519Z,9.50
2023-02-18T20:36:16.743Z,9.60
2023-02-18T20:38:45.020Z,9.60
2023-02-18T20:43:46.641Z,9.60
2023-02-18T20:46:18.919Z,9.70
2023-02-18T20:48:47.629Z,9.70
2023-02-18T20:51:19.665Z,9.60
2023-02-18T20:53:52.988Z,9.60
2023-02-18T20:56:24.592Z,9.60
2023-02-18T20:58:53.003Z,9.70
2023-02-18T21:01:21.658Z,9.70
2023-02-18T21:03:50.643Z,9.60
2023-02-18T21:06:22.406Z,9.60
2023-02-18T21:08:54.153Z,9.60
2023-02-18T21:11:26.846Z,9.60
2023-02-18T21:13:58.459Z,9.60
2023-02-18T21:16:29.713Z,9.60
2023-02-18T21:18:57.979Z,9.60
2023-02-18T21:21:27.386Z,9.70
2023-02-18T21:23:55.822Z,9.60
2023-02-18T21:26:28.483Z,9.70
2023-02-18T21:29:00.936Z,9.70
2023-02-18T21:31:32.656Z,9.30
2023-02-18T21:36:32.112Z,9.70
2023-02-18T21:39:03.058Z,9.70
2023-02-18T21:41:35.141Z,10.30
2023-02-18T21:44:04.573Z,9.70
2023-02-18T21:46:36.349Z,9.80
2023-02-18T21:49:10.638Z,9.80
2023-02-18T21:51:57.923Z,9.70
2023-02-18T21:54:29.665Z,9.80
2023-02-18T21:57:01.216Z,9.70
2023-02-18T21:59:32.516Z,9.70
2023-02-18T22:04:32.452Z,9.80
2023-02-18T22:07:01.420Z,9.70
2023-02-18T22:09:29.795Z,9.70
2023-02-18T22:11:59.421Z,9.70
2023-02-18T22:14:28.436Z,9.70
2023-02-18T22:19:26.395Z,9.80
2023-02-18T22:21:54.738Z,9.60
2023-02-18T22:29:22.521Z,9.60
2023-02-18T22:31:53.353Z,9.60
2023-02-18T22:34:23.940Z,9.60
2023-02-18T22:39:21.012Z,9.40
2023-02-18T22:41:50.381Z,9.60
2023-02-18T22:44:23.071Z,10.30
2023-02-18T22:46:51.788Z,9.50
2023-02-18T22:49:20.245Z,9.40
2023-02-18T22:51:54.323Z,9.40
2023-02-18T22:54:23.097Z,9.50
2023-02-18T22:56:51.693Z,9.40
2023-02-18T22:59:21.740Z,9.30
2023-02-18T23:01:52.779Z,9.00
2023-02-18T23:04:22.526Z,9.40
2023-02-18T23:06:51.477Z,8.90
2023-02-18T23:09:23.214Z,9.30
2023-02-18T23:11:53.183Z,9.30
2023-02-18T23:14:23.402Z,9.40
2023-02-18T23:17:14.713Z,9.40
2023-02-18T23:19:46.011Z,9.40
2023-02-18T23:22:20.510Z,10.50
2023-02-18T23:29:49.921Z,9.40
2023-02-18T23:32:19.019Z,9.40
2023-02-18T23:34:47.433Z,9.40
2023-02-18T23:37:15.766Z,9.40
2023-02-18T23:39:45.320Z,9.40
2023-02-18T23:42:14.266Z,9.40
2023-02-18T23:47:12.507Z,9.40
2023-02-18T23:49:40.823Z,9.30
2023-02-18T23:52:09.196Z,9.30
2023-02-18T23:54:37.535Z,9.30
2023-02-18T23:57:05.825Z,9.30
